Terminal Aerodrome Forecast
Issued by NWS

Home | Current Version | Previous Version | Text Only | Print | Product List | Glossary On
Versions: 1 2 3 4 5 6 7 8 9 10 11 12 13 14 15 16 17 18 19
000
FTUS43 KDVN 302048 AAB
TAFCID
TAF AMD
KCID 302048Z 3021/0118 04010KT P6SM VCSH OVC020
     FM010000 02006KT P6SM OVC013
     FM011200 36006KT 6SM -RA BR OVC010=

USA.gov is the U.S. government's official web portal to all federal, state and local government web resources and services.